Time;durP1;ratioP1;P1;durP2;ratioP2;P2;SDS_P1;SDS_P2;PMS_P1;PMS_P2;Temp;Humidity;BMP_temperature;BMP_pressure;BME280_temperature;BME280_humidity;BME280_pressure;Samples;Min_cycle;Max_cycle;Signal;HPM_P1;HPM_P2
2022/09/25 00:00:41;;;;;;;;;;;10.40;99.90;;;;;;5107486;27;20082;-75
2022/09/25 00:03:07;;;;;;;;;;;10.40;99.90;;;;;;5103890;27;19946;-76
2022/09/25 00:05:35;;;;;;;;;;;10.40;99.90;;;;;;5111796;28;20011;-76
2022/09/25 00:08:02;;;;;;;;;;;10.30;99.90;;;;;;5111632;28;20022;-76
2022/09/25 00:10:28;;;;;;;;;;;10.30;99.90;;;;;;5131473;27;19919;-76
2022/09/25 00:12:54;;;;;;;;;;;10.30;99.90;;;;;;5135446;28;19908;-76
2022/09/25 00:15:19;;;;;;;;;;;10.30;99.90;;;;;;5116242;28;20221;-76
2022/09/25 00:17:45;;;;;;;;;;;10.30;99.90;;;;;;5128411;27;19915;-76
2022/09/25 00:20:11;;;;;;;;;;;10.30;99.90;;;;;;5128706;27;20015;-76
2022/09/25 00:22:36;;;;;;;;;;;10.30;99.90;;;;;;5115866;28;20233;-76
2022/09/25 00:25:02;;;;;;;;;;;10.30;99.90;;;;;;5130334;27;19918;-76
2022/09/25 00:27:28;;;;;;;;;;;10.30;99.90;;;;;;5115595;28;19915;-76
2022/09/25 00:29:53;;;;;;;;;;;10.30;99.90;;;;;;5130741;27;19971;-76
2022/09/25 00:32:19;;;;;;;;;;;10.40;99.90;;;;;;5134430;27;20275;-77
2022/09/25 00:34:44;;;;;;;;;;;10.30;99.90;;;;;;5122517;27;19912;-77
2022/09/25 00:37:10;;;;;;;;;;;10.30;99.90;;;;;;5120668;28;20310;-76
2022/09/25 00:39:35;;;;;;;;;;;10.30;99.90;;;;;;5116590;28;19915;-76
2022/09/25 00:42:01;;;;;;;;;;;10.20;99.90;;;;;;5126484;27;19919;-76
2022/09/25 00:44:45;;;;;;;;;;;10.10;99.90;;;;;;5116494;27;19912;-76
2022/09/25 00:47:12;;;;;;;;;;;10.00;99.90;;;;;;5124299;27;19924;-76
2022/09/25 00:49:38;;;;;;;;;;;9.90;99.90;;;;;;5120536;27;19972;-76
2022/09/25 00:52:08;;;;;;;;;;;9.90;99.90;;;;;;5130087;27;20359;-77
2022/09/25 00:54:37;;;;;;;;;;;9.90;99.90;;;;;;5123070;27;19912;-76
2022/09/25 00:57:07;;;;;;;;;;;9.80;99.90;;;;;;5128176;27;20183;-77
2022/09/25 00:59:35;;;;;;;;;;;9.80;99.90;;;;;;5126351;27;20040;-76
2022/09/25 01:02:01;;;;;;;;;;;9.80;99.90;;;;;;5115440;28;20040;-76
2022/09/25 01:04:28;;;;;;;;;;;9.80;99.90;;;;;;5105502;28;20010;-76
2022/09/25 01:06:54;;;;;;;;;;;9.90;99.90;;;;;;5109181;28;19916;-75
2022/09/25 01:09:20;;;;;;;;;;;9.90;99.90;;;;;;5134879;27;19917;-76
2022/09/25 01:11:45;;;;;;;;;;;10.00;99.90;;;;;;5135415;28;19911;-77
2022/09/25 01:14:15;;;;;;;;;;;9.90;99.90;;;;;;5130978;27;20303;-76
2022/09/25 01:16:53;;;;;;;;;;;9.90;99.90;;;;;;5111964;28;19968;-76
2022/09/25 01:19:22;;;;;;;;;;;9.80;99.90;;;;;;5105676;27;19918;-77
2022/09/25 01:21:47;;;;;;;;;;;9.80;99.90;;;;;;5136288;27;19919;-77
2022/09/25 01:24:29;;;;;;;;;;;9.70;99.90;;;;;;5136866;27;19915;-77
2022/09/25 01:27:16;;;;;;;;;;;9.80;99.90;;;;;;5105597;27;19912;-77
2022/09/25 01:29:41;;;;;;;;;;;9.80;99.90;;;;;;5126222;27;19911;-77
2022/09/25 01:32:07;;;;;;;;;;;9.80;99.90;;;;;;5137730;27;20839;-76
2022/09/25 01:34:44;;;;;;;;;;;9.80;99.90;;;;;;5137251;27;19911;-77
2022/09/25 01:37:23;;;;;;;;;;;9.80;99.90;;;;;;5106811;28;20302;-77
2022/09/25 01:40:00;;;;;;;;;;;9.80;99.90;;;;;;5123797;27;19916;-77
2022/09/25 01:42:29;;;;;;;;;;;9.80;99.90;;;;;;5138008;27;20346;-77
2022/09/25 01:45:00;;;;;;;;;;;9.80;99.90;;;;;;5132741;27;19912;-76
2022/09/25 01:47:27;;;;;;;;;;;9.80;99.90;;;;;;5129941;27;20196;-76
2022/09/25 01:50:00;;;;;;;;;;;9.80;99.90;;;;;;5135470;27;19911;-78
2022/09/25 01:52:28;;;;;;;;;;;9.90;99.90;;;;;;5126339;27;19948;-72
2022/09/25 01:54:59;;;;;;;;;;;10.00;99.90;;;;;;5131851;27;19911;-72
2022/09/25 01:57:35;;;;;;;;;;;9.80;99.90;;;;;;5121964;27;20022;-73
2022/09/25 02:00:07;;;;;;;;;;;9.70;99.90;;;;;;5106031;27;19915;-74
2022/09/25 02:02:40;;;;;;;;;;;9.60;99.90;;;;;;5132708;27;19915;-73
2022/09/25 02:05:16;;;;;;;;;;;9.60;99.90;;;;;;5127592;27;19916;-73
2022/09/25 02:07:49;;;;;;;;;;;9.50;99.90;;;;;;5098678;28;19919;-73
2022/09/25 02:10:24;;;;;;;;;;;9.50;99.90;;;;;;5100472;27;19950;-72
2022/09/25 02:12:51;;;;;;;;;;;9.50;99.90;;;;;;5136608;27;20231;-73
2022/09/25 02:15:20;;;;;;;;;;;9.50;99.90;;;;;;5130325;27;19908;-73
2022/09/25 02:21:09;;;;;;;;;;;9.40;99.90;;;;;;5122339;27;20136;-73
2022/09/25 02:23:58;;;;;;;;;;;9.40;99.90;;;;;;5124701;27;19943;-73
2022/09/25 02:26:25;;;;;;;;;;;9.50;99.90;;;;;;5106645;27;20057;-73
2022/09/25 02:28:52;;;;;;;;;;;9.50;99.90;;;;;;5117485;27;20010;-73
2022/09/25 02:31:19;;;;;;;;;;;9.50;99.90;;;;;;5128739;27;19918;-73
2022/09/25 02:33:44;;;;;;;;;;;9.50;99.90;;;;;;5110543;27;19911;-73
2022/09/25 02:36:17;;;;;;;;;;;9.50;99.90;;;;;;5130706;27;19919;-76
2022/09/25 02:38:43;;;;;;;;;;;9.50;99.90;;;;;;5120741;27;19939;-77
2022/09/25 02:41:28;;;;;;;;;;;9.40;99.90;;;;;;5130977;27;19955;-77
2022/09/25 02:44:12;;;;;;;;;;;9.40;99.90;;;;;;5113904;27;19912;-76
2022/09/25 02:46:43;;;;;;;;;;;9.40;99.90;;;;;;5112814;28;19908;-75
2022/09/25 02:49:08;;;;;;;;;;;9.50;99.90;;;;;;5118344;27;19916;-75
2022/09/25 02:51:37;;;;;;;;;;;9.50;99.90;;;;;;5128326;27;19926;-74
2022/09/25 02:54:21;;;;;;;;;;;9.40;99.90;;;;;;5130824;27;19912;-74
2022/09/25 02:56:52;;;;;;;;;;;9.40;99.90;;;;;;5111239;28;19908;-74
2022/09/25 02:59:19;;;;;;;;;;;9.40;99.90;;;;;;5112488;27;20214;-75
2022/09/25 03:01:46;;;;;;;;;;;9.40;99.90;;;;;;5131837;27;19914;-75
2022/09/25 03:04:12;;;;;;;;;;;9.40;99.90;;;;;;5134917;27;19911;-76
2022/09/25 03:06:38;;;;;;;;;;;9.40;99.90;;;;;;5135064;27;20364;-75
2022/09/25 03:09:05;;;;;;;;;;;9.40;99.90;;;;;;5133861;27;20291;-76
2022/09/25 03:11:34;;;;;;;;;;;9.40;99.90;;;;;;5111330;27;19968;-75
2022/09/25 03:14:01;;;;;;;;;;;9.30;99.90;;;;;;5117302;27;20404;-76
2022/09/25 03:16:30;;;;;;;;;;;9.40;99.90;;;;;;5134843;27;20010;-76
2022/09/25 03:18:55;;;;;;;;;;;9.40;99.90;;;;;;5129355;27;19921;-74
2022/09/25 03:21:21;;;;;;;;;;;9.40;99.90;;;;;;5142482;27;19915;-74
2022/09/25 03:23:46;;;;;;;;;;;9.40;99.90;;;;;;5147920;27;20014;-75
2022/09/25 03:26:12;;;;;;;;;;;9.40;99.90;;;;;;5130489;27;19915;-75
2022/09/25 03:28:37;;;;;;;;;;;9.40;99.90;;;;;;5147760;27;19972;-74
2022/09/25 03:31:04;;;;;;;;;;;9.40;99.90;;;;;;5130685;27;19907;-74
2022/09/25 03:33:34;;;;;;;;;;;9.40;99.90;;;;;;5104853;28;19920;-75
2022/09/25 03:36:05;;;;;;;;;;;9.40;99.90;;;;;;5143465;27;19919;-75
2022/09/25 03:38:31;;;;;;;;;;;9.40;99.90;;;;;;5117334;27;19919;-75
2022/09/25 03:40:56;;;;;;;;;;;9.30;99.90;;;;;;5135328;27;19907;-75
2022/09/25 03:43:22;;;;;;;;;;;9.30;99.90;;;;;;5132766;27;20214;-74
2022/09/25 03:45:47;;;;;;;;;;;9.40;99.90;;;;;;5122617;27;19908;-74
2022/09/25 03:48:13;;;;;;;;;;;9.30;99.90;;;;;;5127820;27;19922;-74
2022/09/25 03:50:39;;;;;;;;;;;9.30;99.90;;;;;;5131554;27;19924;-74
2022/09/25 03:53:04;;;;;;;;;;;9.20;99.90;;;;;;5132291;27;19941;-74
2022/09/25 03:55:30;;;;;;;;;;;9.20;99.90;;;;;;5111559;27;19930;-75
2022/09/25 03:57:56;;;;;;;;;;;9.20;99.90;;;;;;5115604;27;19911;-75
2022/09/25 04:00:22;;;;;;;;;;;9.20;99.90;;;;;;5117566;27;19964;-75
2022/09/25 04:02:49;;;;;;;;;;;9.20;99.90;;;;;;5132643;27;19912;-75
2022/09/25 04:05:15;;;;;;;;;;;9.10;99.90;;;;;;5134561;27;19958;-74
2022/09/25 04:07:41;;;;;;;;;;;9.20;99.90;;;;;;5107921;27;19923;-74
2022/09/25 04:10:06;;;;;;;;;;;9.20;99.90;;;;;;5123587;27;20316;-74
2022/09/25 04:12:32;;;;;;;;;;;9.20;99.90;;;;;;5134812;27;19915;-74
2022/09/25 04:14:58;;;;;;;;;;;9.20;99.90;;;;;;5135329;28;19998;-74
2022/09/25 04:17:23;;;;;;;;;;;9.20;99.90;;;;;;5131945;27;20252;-74
2022/09/25 04:19:49;;;;;;;;;;;9.20;99.90;;;;;;5134286;27;19912;-74
2022/09/25 04:22:14;;;;;;;;;;;9.20;99.90;;;;;;5118585;27;19919;-75
2022/09/25 04:24:49;;;;;;;;;;;9.20;99.90;;;;;;5126149;27;20301;-74
2022/09/25 04:27:19;;;;;;;;;;;9.20;99.90;;;;;;5109594;27;19965;-74
2022/09/25 04:29:45;;;;;;;;;;;9.20;99.90;;;;;;5133174;27;19977;-74
2022/09/25 04:34:56;;;;;;;;;;;9.10;99.90;;;;;;5122672;27;19922;-74
2022/09/25 04:37:25;;;;;;;;;;;9.10;99.90;;;;;;5127035;27;19912;-74
2022/09/25 04:39:54;;;;;;;;;;;9.10;99.90;;;;;;5110708;27;19968;-74
2022/09/25 04:42:23;;;;;;;;;;;9.10;99.90;;;;;;5125698;27;19911;-74
2022/09/25 04:44:55;;;;;;;;;;;9.10;99.90;;;;;;5128711;27;19925;-74
2022/09/25 04:47:21;;;;;;;;;;;9.10;99.90;;;;;;5112123;28;19980;-74
2022/09/25 04:49:47;;;;;;;;;;;9.10;99.90;;;;;;5105810;27;20177;-74
2022/09/25 04:52:14;;;;;;;;;;;9.10;99.90;;;;;;5122604;27;19926;-74
2022/09/25 04:54:40;;;;;;;;;;;9.10;99.90;;;;;;5130586;27;20366;-74
2022/09/25 04:57:05;;;;;;;;;;;9.10;99.90;;;;;;5121387;27;19923;-74
2022/09/25 04:59:31;;;;;;;;;;;9.10;99.90;;;;;;5117445;27;19930;-74
2022/09/25 05:01:56;;;;;;;;;;;9.10;99.90;;;;;;5130734;27;19942;-74
2022/09/25 05:04:22;;;;;;;;;;;9.10;99.90;;;;;;5129445;27;19916;-73
2022/09/25 05:06:47;;;;;;;;;;;9.00;99.90;;;;;;5130834;27;19922;-73
2022/09/25 05:09:13;;;;;;;;;;;9.10;99.90;;;;;;5135346;27;19922;-74
2022/09/25 05:11:38;;;;;;;;;;;9.00;99.90;;;;;;5134101;27;19912;-74
2022/09/25 05:14:04;;;;;;;;;;;9.00;99.90;;;;;;5104377;27;19930;-75
2022/09/25 05:16:30;;;;;;;;;;;9.00;99.90;;;;;;5130963;27;20002;-75
2022/09/25 05:18:55;;;;;;;;;;;9.00;99.90;;;;;;5111818;27;19933;-74
2022/09/25 05:21:21;;;;;;;;;;;9.10;99.90;;;;;;5115878;27;19911;-74
2022/09/25 05:23:46;;;;;;;;;;;9.00;99.90;;;;;;5133932;27;19915;-74
2022/09/25 05:26:12;;;;;;;;;;;9.00;99.90;;;;;;5133809;27;19952;-74
2022/09/25 05:28:38;;;;;;;;;;;8.90;99.90;;;;;;5134174;27;19916;-74
2022/09/25 05:31:04;;;;;;;;;;;8.90;99.90;;;;;;5117077;27;20026;-74
2022/09/25 05:33:30;;;;;;;;;;;8.90;99.90;;;;;;5143527;27;19912;-74
2022/09/25 05:35:59;;;;;;;;;;;8.90;99.90;;;;;;5134043;27;19915;-74
2022/09/25 05:38:25;;;;;;;;;;;8.90;99.90;;;;;;5136639;27;19918;-74
2022/09/25 05:40:51;;;;;;;;;;;8.90;99.90;;;;;;5134636;27;19920;-74
2022/09/25 05:43:16;;;;;;;;;;;8.90;99.90;;;;;;5100452;27;19973;-74
2022/09/25 05:45:42;;;;;;;;;;;8.90;99.90;;;;;;5131733;27;20310;-74
2022/09/25 05:48:07;;;;;;;;;;;9.00;99.90;;;;;;5145474;27;20322;-75
2022/09/25 05:50:33;;;;;;;;;;;8.90;99.90;;;;;;5136871;27;19965;-75
2022/09/25 05:53:01;;;;;;;;;;;8.90;99.90;;;;;;5130926;27;19916;-74
2022/09/25 05:55:27;;;;;;;;;;;8.90;99.90;;;;;;5134470;27;19930;-75
2022/09/25 05:57:53;;;;;;;;;;;8.90;99.90;;;;;;5134466;27;19907;-74
2022/09/25 06:00:19;;;;;;;;;;;8.90;99.90;;;;;;5104200;27;20229;-74
2022/09/25 06:02:44;;;;;;;;;;;8.90;99.90;;;;;;5103653;28;19919;-74
2022/09/25 06:05:10;;;;;;;;;;;8.90;99.90;;;;;;5109505;28;19920;-75
2022/09/25 06:07:36;;;;;;;;;;;8.90;99.90;;;;;;5132677;27;19977;-74
2022/09/25 06:10:01;;;;;;;;;;;8.90;99.90;;;;;;5118651;27;20318;-74
2022/09/25 06:12:30;;;;;;;;;;;9.00;99.90;;;;;;5107182;28;20393;-75
2022/09/25 06:14:56;;;;;;;;;;;9.00;99.90;;;;;;5125913;27;20355;-75
2022/09/25 06:17:22;;;;;;;;;;;9.00;99.90;;;;;;5126290;27;19908;-75
2022/09/25 06:19:48;;;;;;;;;;;9.10;99.90;;;;;;5111196;27;19915;-74
2022/09/25 06:22:13;;;;;;;;;;;9.20;99.90;;;;;;5131807;27;19939;-75
2022/09/25 06:24:39;;;;;;;;;;;9.20;99.90;;;;;;5111902;28;19914;-75
2022/09/25 06:27:05;;;;;;;;;;;9.30;99.90;;;;;;5102095;28;19918;-75
2022/09/25 06:29:30;;;;;;;;;;;9.30;99.90;;;;;;5116789;27;20064;-75
2022/09/25 06:31:56;;;;;;;;;;;9.40;99.90;;;;;;5125515;27;19911;-75
2022/09/25 06:34:21;;;;;;;;;;;9.40;99.90;;;;;;5135578;27;19915;-75
2022/09/25 06:36:47;;;;;;;;;;;9.40;99.90;;;;;;5107621;27;19919;-75
2022/09/25 06:39:13;;;;;;;;;;;9.50;99.90;;;;;;5129488;27;19912;-74
2022/09/25 06:41:39;;;;;;;;;;;9.50;99.90;;;;;;5113730;27;19923;-74
2022/09/25 06:44:07;;;;;;;;;;;9.60;99.90;;;;;;5120443;27;19919;-75
2022/09/25 06:46:33;;;;;;;;;;;9.60;99.90;;;;;;5121634;27;19912;-74
2022/09/25 06:48:59;;;;;;;;;;;9.90;99.90;;;;;;5102281;27;19935;-74
2022/09/25 06:51:31;;;;;;;;;;;10.10;99.90;;;;;;5120186;27;19946;-74
2022/09/25 06:53:57;;;;;;;;;;;10.70;99.90;;;;;;5123765;27;19933;-74
2022/09/25 06:56:23;;;;;;;;;;;11.40;99.90;;;;;;5114831;27;19914;-75
2022/09/25 06:58:48;;;;;;;;;;;12.00;99.90;;;;;;5132909;27;20001;-75
2022/09/25 07:01:14;;;;;;;;;;;12.50;99.90;;;;;;5112309;27;20347;-75
2022/09/25 07:03:47;;;;;;;;;;;13.30;99.90;;;;;;5126814;27;19968;-75
2022/09/25 07:06:16;;;;;;;;;;;14.10;99.90;;;;;;5116737;27;20232;-75
2022/09/25 07:08:43;;;;;;;;;;;14.70;99.90;;;;;;5113765;27;19940;-75
2022/09/25 07:11:13;;;;;;;;;;;15.10;99.90;;;;;;5129276;27;19911;-76
2022/09/25 07:13:39;;;;;;;;;;;15.10;99.90;;;;;;5144777;27;19920;-76
2022/09/25 07:16:06;;;;;;;;;;;15.10;99.90;;;;;;5114831;27;19911;-76
2022/09/25 07:18:32;;;;;;;;;;;15.00;99.90;;;;;;5131566;27;19908;-76
2022/09/25 07:21:02;;;;;;;;;;;14.80;99.90;;;;;;5115422;28;20234;-76
2022/09/25 07:23:27;;;;;;;;;;;14.90;99.90;;;;;;5142780;27;19916;-77
2022/09/25 07:25:53;;;;;;;;;;;15.00;99.90;;;;;;5111656;27;20306;-77
2022/09/25 07:28:19;;;;;;;;;;;15.10;99.90;;;;;;5132284;27;19969;-76
2022/09/25 07:30:45;;;;;;;;;;;15.50;99.90;;;;;;5129976;27;19907;-78
2022/09/25 07:33:11;;;;;;;;;;;15.90;99.90;;;;;;5128868;27;19923;-78
2022/09/25 07:35:36;;;;;;;;;;;16.10;99.90;;;;;;5113072;27;19908;-77
2022/09/25 07:38:02;;;;;;;;;;;16.30;99.90;;;;;;5112769;27;20306;-76
2022/09/25 07:40:28;;;;;;;;;;;16.50;99.90;;;;;;5130242;27;19908;-77
2022/09/25 07:42:57;;;;;;;;;;;16.50;99.90;;;;;;5121486;27;19977;-77
2022/09/25 07:45:22;;;;;;;;;;;16.40;99.90;;;;;;5124759;27;20302;-74
2022/09/25 07:47:48;;;;;;;;;;;16.50;99.90;;;;;;5094879;28;19926;-74
2022/09/25 07:50:13;;;;;;;;;;;16.60;99.90;;;;;;5101726;28;20006;-77
2022/09/25 07:52:39;;;;;;;;;;;16.90;99.90;;;;;;5120101;27;19991;-76
2022/09/25 07:55:06;;;;;;;;;;;17.10;99.90;;;;;;5109881;27;19911;-76
2022/09/25 07:57:31;;;;;;;;;;;17.00;99.90;;;;;;5127947;27;19968;-75
2022/09/25 07:59:57;;;;;;;;;;;16.90;99.90;;;;;;5096358;28;20245;-75
2022/09/25 08:02:22;;;;;;;;;;;16.80;99.90;;;;;;5101441;28;20319;-74
2022/09/25 08:04:48;;;;;;;;;;;16.80;99.90;;;;;;5105568;28;19946;-74
2022/09/25 08:07:13;;;;;;;;;;;17.00;99.90;;;;;;5119987;28;19911;-76
2022/09/25 08:09:39;;;;;;;;;;;17.30;99.90;;;;;;5115083;28;20314;-75
2022/09/25 08:12:04;;;;;;;;;;;17.50;99.90;;;;;;5125249;28;20256;-74
2022/09/25 08:14:31;;;;;;;;;;;17.40;99.90;;;;;;5132503;28;19964;-74
2022/09/25 08:16:57;;;;;;;;;;;17.40;99.90;;;;;;5128137;28;19908;-74
2022/09/25 08:19:22;;;;;;;;;;;17.10;99.90;;;;;;5122934;28;19911;-74
2022/09/25 08:21:49;;;;;;;;;;;17.00;99.90;;;;;;5095813;28;19927;-74
2022/09/25 08:24:14;;;;;;;;;;;16.60;99.90;;;;;;5116144;27;19915;-74
2022/09/25 08:26:40;;;;;;;;;;;16.10;99.90;;;;;;5110656;28;20019;-74
2022/09/25 08:29:07;;;;;;;;;;;15.70;99.90;;;;;;5126395;27;20006;-74
2022/09/25 08:31:33;;;;;;;;;;;15.40;99.90;;;;;;5119793;27;19919;-73
2022/09/25 08:33:58;;;;;;;;;;;15.20;99.90;;;;;;5137305;27;19912;-74
2022/09/25 08:36:24;;;;;;;;;;;15.10;99.90;;;;;;5117250;27;19908;-73
2022/09/25 08:38:51;;;;;;;;;;;15.00;99.90;;;;;;5136591;27;19915;-75
2022/09/25 08:41:29;;;;;;;;;;;14.90;99.90;;;;;;5103630;27;19923;-73
2022/09/25 08:44:05;;;;;;;;;;;14.90;99.90;;;;;;5116250;27;19911;-75
2022/09/25 08:49:15;;;;;;;;;;;14.90;99.90;;;;;;5125186;27;20214;-73
2022/09/25 08:51:46;;;;;;;;;;;14.90;99.90;;;;;;5119240;27;20007;-74
2022/09/25 08:54:23;;;;;;;;;;;15.00;99.90;;;;;;5106075;27;19938;-75
2022/09/25 08:56:51;;;;;;;;;;;15.40;99.90;;;;;;5111435;28;19946;-76
2022/09/25 08:59:37;;;;;;;;;;;16.60;99.90;;;;;;5118889;28;19907;-75
2022/09/25 09:02:10;;;;;;;;;;;17.40;99.90;;;;;;5131846;27;19998;-75
2022/09/25 09:04:46;;;;;;;;;;;18.10;99.90;;;;;;5122996;27;19923;-75
2022/09/25 09:07:21;;;;;;;;;;;18.70;99.90;;;;;;5110727;28;20306;-74
2022/09/25 09:09:58;;;;;;;;;;;19.30;99.90;;;;;;5121508;27;19907;-75
2022/09/25 09:12:34;;;;;;;;;;;19.80;99.90;;;;;;5121437;27;19912;-75
2022/09/25 09:15:21;;;;;;;;;;;19.60;99.90;;;;;;5115022;27;19961;-75
2022/09/25 09:17:47;;;;;;;;;;;19.40;99.90;;;;;;5127452;27;20340;-75
2022/09/25 09:20:15;;;;;;;;;;;19.50;99.90;;;;;;5125318;27;19915;-74
2022/09/25 09:22:44;;;;;;;;;;;19.60;99.90;;;;;;5104779;28;19912;-77
2022/09/25 09:25:27;;;;;;;;;;;19.20;99.90;;;;;;5128913;27;20228;-75
2022/09/25 09:27:56;;;;;;;;;;;18.90;99.90;;;;;;5122498;27;19919;-75
2022/09/25 09:30:25;;;;;;;;;;;17.90;99.90;;;;;;5121141;27;19915;-72
2022/09/25 09:33:00;;;;;;;;;;;17.50;99.90;;;;;;5134818;27;19915;-75
2022/09/25 09:35:35;;;;;;;;;;;16.90;99.90;;;;;;5099897;28;20314;-75
2022/09/25 09:38:06;;;;;;;;;;;16.90;99.90;;;;;;5110722;27;19954;-75
2022/09/25 09:40:45;;;;;;;;;;;17.10;99.90;;;;;;5129387;27;19919;-74
2022/09/25 09:43:14;;;;;;;;;;;17.20;99.90;;;;;;5132473;27;19919;-72
2022/09/25 09:45:43;;;;;;;;;;;17.30;99.90;;;;;;5107256;27;19916;-71
2022/09/25 09:48:15;;;;;;;;;;;17.70;99.90;;;;;;5118382;27;19920;-74
2022/09/25 09:50:44;;;;;;;;;;;17.70;99.90;;;;;;5118233;27;20010;-74
2022/09/25 09:53:17;;;;;;;;;;;18.00;99.90;;;;;;5103204;27;19912;-75
2022/09/25 09:55:44;;;;;;;;;;;17.90;99.90;;;;;;5128020;27;19936;-74
2022/09/25 09:58:19;;;;;;;;;;;17.70;99.90;;;;;;5113354;27;19919;-74
2022/09/25 10:00:46;;;;;;;;;;;17.30;99.90;;;;;;5126229;27;20632;-74
2022/09/25 10:03:27;;;;;;;;;;;17.20;99.90;;;;;;5119324;27;19915;-77
2022/09/25 10:05:56;;;;;;;;;;;17.10;99.90;;;;;;5119894;27;19911;-74
2022/09/25 10:08:22;;;;;;;;;;;17.10;99.90;;;;;;5116767;28;19920;-77
2022/09/25 10:10:54;;;;;;;;;;;17.20;99.90;;;;;;5099249;27;19918;-73
2022/09/25 10:13:20;;;;;;;;;;;17.30;99.90;;;;;;5120836;27;19915;-76
2022/09/25 10:15:45;;;;;;;;;;;17.40;99.90;;;;;;5119355;27;19969;-76
2022/09/25 10:18:12;;;;;;;;;;;17.40;99.90;;;;;;5106864;27;19915;-74
2022/09/25 10:20:40;;;;;;;;;;;17.40;99.90;;;;;;5130976;27;19924;-75
2022/09/25 10:23:16;;;;;;;;;;;17.40;99.90;;;;;;5114429;27;19915;-76
2022/09/25 10:25:42;;;;;;;;;;;17.30;99.90;;;;;;5100856;27;19912;-75
2022/09/25 10:28:41;;;;;;;;;;;17.10;99.90;;;;;;5125207;27;20294;-76
2022/09/25 10:31:07;;;;;;;;;;;17.00;99.90;;;;;;5041948;28;20205;-75
2022/09/25 10:33:33;;;;;;;;;;;17.00;99.90;;;;;;5016715;28;19909;-74
2022/09/25 10:35:58;;;;;;;;;;;17.10;99.90;;;;;;5030885;28;19928;-75
2022/09/25 10:38:30;;;;;;;;;;;17.20;99.90;;;;;;5024496;28;19959;-74
2022/09/25 10:40:58;;;;;;;;;;;17.30;99.90;;;;;;5025473;28;19979;-74
2022/09/25 10:43:23;;;;;;;;;;;17.50;99.90;;;;;;5032649;28;19966;-77
2022/09/25 10:46:09;;;;;;;;;;;17.60;99.90;;;;;;5013178;28;20289;-76
2022/09/25 10:51:20;;;;;;;;;;;17.60;99.90;;;;;;5032907;28;19928;-75
2022/09/25 10:53:47;;;;;;;;;;;17.50;99.90;;;;;;5030675;28;19913;-75
2022/09/25 10:56:14;;;;;;;;;;;17.40;99.90;;;;;;5029232;28;20209;-75
2022/09/25 10:58:42;;;;;;;;;;;17.40;99.90;;;;;;5030146;28;19923;-77
2022/09/25 11:01:12;;;;;;;;;;;17.30;99.90;;;;;;5031294;28;19960;-75
2022/09/25 11:03:46;;;;;;;;;;;17.20;99.90;;;;;;5029427;28;19921;-75
2022/09/25 11:06:20;;;;;;;;;;;17.10;99.90;;;;;;5054769;27;19911;-75
2022/09/25 11:08:50;;;;;;;;;;;17.10;99.90;;;;;;5113999;27;19994;-75
2022/09/25 11:11:20;;;;;;;;;;;17.10;99.90;;;;;;5112392;27;19950;-76
2022/09/25 11:13:49;;;;;;;;;;;17.30;99.90;;;;;;5123895;27;20282;-75
2022/09/25 11:16:15;;;;;;;;;;;17.40;99.90;;;;;;5114764;27;19911;-74
2022/09/25 11:18:51;;;;;;;;;;;17.70;99.90;;;;;;5124668;27;19915;-76
2022/09/25 11:21:26;;;;;;;;;;;17.90;99.90;;;;;;5105956;27;19990;-76
2022/09/25 11:23:52;;;;;;;;;;;18.00;99.90;;;;;;5100214;27;19934;-75
2022/09/25 11:26:19;;;;;;;;;;;18.10;99.90;;;;;;5112917;28;19912;-75
2022/09/25 11:28:48;;;;;;;;;;;18.00;99.90;;;;;;5113229;28;19919;-75
2022/09/25 11:31:23;;;;;;;;;;;17.70;99.90;;;;;;5118276;27;20221;-76
2022/09/25 11:33:56;;;;;;;;;;;17.50;99.90;;;;;;5098380;27;20342;-75
2022/09/25 11:36:26;;;;;;;;;;;17.20;99.90;;;;;;5125371;27;19915;-73
2022/09/25 11:41:55;;;;;;;;;;;16.20;99.90;;;;;;5126453;27;19969;-75
2022/09/25 11:44:20;;;;;;;;;;;15.80;99.90;;;;;;5123958;27;20010;-74
2022/09/25 11:46:52;;;;;;;;;;;15.60;99.90;;;;;;5112546;27;20266;-76
2022/09/25 11:49:23;;;;;;;;;;;15.30;99.90;;;;;;5111296;27;19916;-73
2022/09/25 11:51:59;;;;;;;;;;;15.20;99.90;;;;;;5121138;27;20318;-76
2022/09/25 11:54:27;;;;;;;;;;;15.20;99.90;;;;;;5123909;27;19912;-74
2022/09/25 11:56:57;;;;;;;;;;;14.90;99.90;;;;;;5119898;27;20359;-72
2022/09/25 11:59:28;;;;;;;;;;;14.70;99.90;;;;;;5119247;27;20002;-74
2022/09/25 12:02:02;;;;;;;;;;;14.60;99.90;;;;;;5111221;27;19912;-74
2022/09/25 12:04:41;;;;;;;;;;;14.60;99.90;;;;;;5123800;27;19997;-75
2022/09/25 12:07:26;;;;;;;;;;;14.50;99.90;;;;;;5111641;27;19912;-77
2022/09/25 12:10:07;;;;;;;;;;;14.50;99.90;;;;;;5132637;27;19916;-75
2022/09/25 12:12:35;;;;;;;;;;;14.40;99.90;;;;;;5130003;27;19916;-76
2022/09/25 12:15:19;;;;;;;;;;;14.40;99.90;;;;;;5132729;27;19922;-71
2022/09/25 12:17:54;;;;;;;;;;;14.50;99.90;;;;;;5127855;27;19914;-76
2022/09/25 12:20:26;;;;;;;;;;;14.50;99.90;;;;;;5124800;27;19961;-77
2022/09/25 12:22:51;;;;;;;;;;;14.60;99.90;;;;;;5112353;27;19920;-73
2022/09/25 12:25:25;;;;;;;;;;;14.60;99.90;;;;;;5121682;27;20017;-76
2022/09/25 12:28:00;;;;;;;;;;;14.50;99.90;;;;;;5133016;27;19967;-74
2022/09/25 12:30:32;;;;;;;;;;;14.60;99.90;;;;;;5111257;27;19916;-76
2022/09/25 12:33:05;;;;;;;;;;;14.60;99.90;;;;;;5109531;27;20209;-76
2022/09/25 12:35:37;;;;;;;;;;;14.60;99.90;;;;;;5097868;27;19915;-74
2022/09/25 12:38:09;;;;;;;;;;;14.70;99.90;;;;;;5105052;27;20326;-76
2022/09/25 12:40:37;;;;;;;;;;;14.70;99.90;;;;;;5126293;27;19980;-76
2022/09/25 12:43:03;;;;;;;;;;;14.80;99.90;;;;;;5111910;27;20333;-76
2022/09/25 12:45:32;;;;;;;;;;;14.70;99.90;;;;;;5110892;28;19912;-76
2022/09/25 12:48:08;;;;;;;;;;;14.70;99.90;;;;;;5110469;28;19915;-75
2022/09/25 12:50:37;;;;;;;;;;;14.70;99.90;;;;;;5112256;28;20002;-75
2022/09/25 12:53:09;;;;;;;;;;;14.70;99.90;;;;;;5113276;28;19919;-76
2022/09/25 12:55:41;;;;;;;;;;;14.70;99.90;;;;;;5097649;28;19911;-76
2022/09/25 12:58:17;;;;;;;;;;;14.70;99.90;;;;;;5095703;28;19915;-76
2022/09/25 13:00:44;;;;;;;;;;;14.60;99.90;;;;;;5096591;28;19923;-76
2022/09/25 13:03:13;;;;;;;;;;;14.60;99.90;;;;;;5122592;28;19916;-75
2022/09/25 13:05:43;;;;;;;;;;;14.60;99.90;;;;;;5097347;28;20002;-75
2022/09/25 13:08:09;;;;;;;;;;;14.60;99.90;;;;;;5097565;28;20295;-75
2022/09/25 13:10:41;;;;;;;;;;;14.70;99.90;;;;;;5113515;28;19908;-75
2022/09/25 13:13:11;;;;;;;;;;;14.70;99.90;;;;;;5125298;27;20333;-74
2022/09/25 13:15:38;;;;;;;;;;;14.70;99.90;;;;;;5129054;27;20294;-74
2022/09/25 13:18:04;;;;;;;;;;;14.80;99.90;;;;;;5126795;27;19912;-72
2022/09/25 13:20:31;;;;;;;;;;;14.80;99.90;;;;;;5118177;27;19912;-75
2022/09/25 13:23:05;;;;;;;;;;;15.00;99.90;;;;;;5109725;27;19916;-74
2022/09/25 13:25:40;;;;;;;;;;;15.00;99.90;;;;;;5128553;27;20222;-74
2022/09/25 13:28:06;;;;;;;;;;;15.00;99.90;;;;;;5125503;27;20333;-74
2022/09/25 13:30:32;;;;;;;;;;;15.10;99.90;;;;;;5121718;27;19958;-75
2022/09/25 13:33:01;;;;;;;;;;;15.20;99.90;;;;;;5117886;27;19987;-73
2022/09/25 13:35:27;;;;;;;;;;;15.30;99.90;;;;;;5102498;27;20013;-76
2022/09/25 13:37:54;;;;;;;;;;;15.20;99.90;;;;;;5128969;27;20027;-77
2022/09/25 13:43:15;;;;;;;;;;;15.50;99.90;;;;;;5119038;27;19919;-76
2022/09/25 13:45:41;;;;;;;;;;;15.70;99.90;;;;;;5106851;28;20006;-75
2022/09/25 13:48:11;;;;;;;;;;;15.80;99.90;;;;;;5116057;28;20014;-74
2022/09/25 13:50:46;;;;;;;;;;;15.90;99.90;;;;;;5130661;27;20008;-74
2022/09/25 13:53:19;;;;;;;;;;;16.00;99.90;;;;;;5120392;27;19968;-75
2022/09/25 13:55:54;;;;;;;;;;;16.20;99.90;;;;;;5104734;27;19911;-75
2022/09/25 13:58:20;;;;;;;;;;;16.30;99.90;;;;;;5116740;27;19984;-75
2022/09/25 14:00:46;;;;;;;;;;;16.60;99.90;;;;;;5099640;28;19911;-77
2022/09/25 14:03:30;;;;;;;;;;;16.70;99.90;;;;;;5111858;28;20239;-76
2022/09/25 14:05:57;;;;;;;;;;;16.80;99.90;;;;;;5104197;27;20183;-72
2022/09/25 14:08:23;;;;;;;;;;;16.90;99.90;;;;;;5121114;27;19920;-74
2022/09/25 14:10:50;;;;;;;;;;;16.90;99.90;;;;;;5100424;28;19915;-75
2022/09/25 14:13:17;;;;;;;;;;;16.90;99.90;;;;;;5126300;27;19919;-74
2022/09/25 14:15:43;;;;;;;;;;;16.90;99.90;;;;;;5129010;27;19947;-75
2022/09/25 14:18:15;;;;;;;;;;;16.80;99.90;;;;;;5112313;27;20306;-75
2022/09/25 14:20:42;;;;;;;;;;;16.80;99.90;;;;;;5120747;27;20105;-74
2022/09/25 14:23:10;;;;;;;;;;;16.70;99.90;;;;;;5119362;27;19922;-74
2022/09/25 14:25:37;;;;;;;;;;;16.50;99.90;;;;;;5119519;28;19907;-74
2022/09/25 14:28:14;;;;;;;;;;;16.30;99.90;;;;;;5100974;27;19938;-74
2022/09/25 14:30:40;;;;;;;;;;;16.20;99.90;;;;;;5124398;27;19963;-75
2022/09/25 14:33:37;;;;;;;;;;;16.10;99.90;;;;;;5125472;27;20310;-75
2022/09/25 14:36:11;;;;;;;;;;;15.90;99.90;;;;;;5058509;27;19919;-75
2022/09/25 14:38:49;;;;;;;;;;;15.70;99.90;;;;;;5117511;27;19915;-75
2022/09/25 14:41:17;;;;;;;;;;;15.60;99.90;;;;;;5116748;27;20230;-76
2022/09/25 14:43:51;;;;;;;;;;;15.50;99.90;;;;;;5119548;27;19919;-74
2022/09/25 14:46:18;;;;;;;;;;;15.30;99.90;;;;;;5116955;27;20010;-74
2022/09/25 14:48:55;;;;;;;;;;;15.20;99.90;;;;;;5121518;27;20287;-74